createdAt,value
2019-05-07T00:03:26.496Z,5.97
2019-05-07T00:08:33.719Z,5.92
2019-05-07T00:13:44.118Z,4.85
2019-05-07T00:18:49.492Z,5.00
2019-05-07T00:23:56.553Z,6.62
2019-05-07T00:29:04.096Z,4.95
2019-05-07T00:39:46.437Z,5.30
2019-05-07T00:50:19.474Z,12.80
2019-05-07T00:55:28.453Z,11.60
2019-05-07T01:00:36.117Z,9.43
2019-05-07T01:05:43.445Z,14.13
2019-05-07T01:10:52.640Z,9.90
2019-05-07T01:15:59.396Z,11.88
2019-05-07T01:21:06.465Z,12.50
2019-05-07T01:26:13.434Z,10.43
2019-05-07T01:31:22.196Z,12.47
2019-05-07T01:36:29.439Z,12.93
2019-05-07T01:41:36.434Z,14.07
2019-05-07T01:46:43.438Z,15.37
2019-05-07T01:51:52.852Z,11.48
2019-05-07T01:56:59.388Z,13.32
2019-05-07T02:02:17.623Z,14.45
2019-05-07T02:07:37.935Z,10.15
2019-05-07T02:17:52.583Z,18.95
2019-05-07T02:28:06.429Z,14.78
2019-05-07T02:33:14.028Z,14.25
2019-05-07T02:38:34.253Z,10.70
2019-05-07T02:48:55.849Z,12.75
2019-05-07T02:54:08.356Z,10.40
2019-05-07T02:59:15.458Z,12.37
2019-05-07T03:04:25.138Z,11.97
2019-05-07T03:14:39.058Z,12.82
2019-05-07T03:19:47.698Z,10.30
2019-05-07T03:25:03.267Z,11.35
2019-05-07T03:30:26.607Z,12.82
2019-05-07T03:40:45.540Z,13.50
2019-05-07T03:46:04.741Z,13.38
2019-05-07T03:51:13.198Z,14.53
2019-05-07T03:56:23.384Z,13.30
2019-05-07T04:01:29.385Z,17.77
2019-05-07T04:06:36.440Z,15.90
2019-05-07T04:11:43.517Z,20.00
2019-05-07T04:16:53.170Z,18.32
2019-05-07T04:27:15.257Z,16.73
2019-05-07T04:32:25.426Z,18.02
2019-05-07T04:37:33.128Z,18.02
2019-05-07T04:42:42.772Z,18.62
2019-05-07T04:47:49.433Z,20.55
2019-05-07T04:52:56.433Z,23.85
2019-05-07T05:03:23.820Z,17.23
2019-05-07T05:13:38.775Z,19.80
2019-05-07T05:18:45.432Z,19.35
2019-05-07T05:24:14.245Z,17.10
2019-05-07T05:34:28.651Z,15.88
2019-05-07T05:39:35.464Z,24.02
2019-05-07T05:44:42.439Z,17.87
2019-05-07T05:55:11.997Z,14.78
2019-05-07T06:00:38.101Z,18.67
2019-05-07T06:05:55.260Z,17.34
2019-05-07T06:11:11.883Z,11.50
2019-05-07T06:16:22.241Z,20.00
2019-05-07T06:21:47.618Z,16.67
2019-05-07T06:26:54.571Z,22.87
2019-05-07T06:32:04.253Z,18.05
2019-05-07T06:37:12.412Z,12.80
2019-05-07T06:42:44.100Z,14.18
2019-05-07T06:52:59.432Z,10.80
2019-05-07T06:58:08.249Z,13.32
2019-05-07T07:08:48.565Z,11.25
2019-05-07T07:13:55.437Z,9.83
2019-05-07T07:19:03.316Z,10.75
2019-05-07T07:24:12.561Z,8.63
2019-05-07T07:29:23.269Z,6.10
2019-05-07T07:34:34.258Z,6.95
2019-05-07T07:50:12.962Z,10.00
2019-05-07T07:55:22.427Z,9.35
2019-05-07T08:00:46.049Z,10.75
2019-05-07T08:05:53.256Z,11.53
2019-05-07T08:16:06.459Z,8.33
2019-05-07T08:21:13.692Z,7.93
2019-05-07T08:31:57.101Z,7.67
2019-05-07T08:37:04.431Z,7.85
2019-05-07T08:42:12.321Z,10.13
2019-05-07T08:57:39.435Z,11.18
2019-05-07T09:02:46.435Z,12.63
2019-05-07T09:13:02.587Z,6.00
2019-05-07T09:23:15.471Z,4.53
2019-05-07T09:28:23.237Z,4.53
2019-05-07T09:33:34.919Z,3.52
2019-05-07T09:38:43.053Z,5.57
2019-05-07T09:43:51.860Z,10.63
2019-05-07T09:48:59.414Z,12.07
2019-05-07T09:54:07.716Z,5.87
2019-05-07T09:59:14.656Z,10.45
2019-05-07T10:04:22.391Z,10.90
2019-05-07T10:09:29.450Z,5.10
2019-05-07T10:14:36.579Z,6.58
2019-05-07T10:19:45.448Z,5.42
2019-05-07T10:24:52.575Z,8.85
2019-05-07T10:30:02.442Z,7.55
2019-05-07T10:35:12.557Z,7.15
2019-05-07T10:40:22.267Z,11.60
2019-05-07T10:45:47.493Z,9.98
2019-05-07T10:50:55.660Z,7.25
2019-05-07T10:56:02.814Z,7.60
2019-05-07T11:06:16.413Z,21.60
2019-05-07T11:16:33.651Z,4.10
2019-05-07T11:21:41.876Z,5.30
2019-05-07T11:31:54.760Z,5.80
2019-05-07T11:42:18.589Z,7.33
2019-05-07T11:47:31.889Z,4.08
2019-05-07T11:52:42.582Z,6.70
2019-05-07T11:57:51.862Z,5.78
2019-05-07T12:02:58.596Z,8.23
2019-05-07T12:08:05.580Z,7.33
2019-05-07T12:13:12.926Z,3.55
2019-05-07T12:18:22.818Z,7.05
2019-05-07T12:23:29.677Z,4.03
2019-05-07T12:28:36.574Z,32.58
2019-05-07T12:34:02.547Z,5.60
2019-05-07T12:39:12.758Z,7.37
2019-05-07T12:44:19.739Z,8.25
2019-05-07T12:49:26.572Z,8.33
2019-05-07T12:54:46.050Z,2.77
2019-05-07T12:59:53.225Z,3.12
2019-05-07T13:05:02.707Z,4.62
2019-05-07T13:10:10.610Z,2.40
2019-05-07T13:15:24.998Z,3.40
2019-05-07T13:25:32.535Z,4.60
2019-05-07T13:30:43.633Z,2.25
2019-05-07T13:41:06.584Z,5.70
2019-05-07T13:51:21.733Z,6.80
2019-05-07T14:12:12.568Z,3.75
2019-05-07T14:17:21.765Z,4.17
2019-05-07T14:22:28.452Z,5.58
2019-05-07T14:27:36.441Z,3.30
2019-05-07T14:32:52.589Z,6.10
2019-05-07T14:38:14.605Z,3.77
2019-05-07T14:43:35.127Z,7.40
2019-05-07T14:48:43.897Z,11.18
2019-05-07T14:53:51.100Z,4.87
2019-05-07T14:58:58.562Z,3.45
2019-05-07T15:04:05.630Z,3.70
2019-05-07T15:09:12.546Z,4.47
2019-05-07T15:14:19.451Z,3.42
2019-05-07T15:19:26.440Z,5.42
2019-05-07T15:24:33.566Z,4.33
2019-05-07T15:29:43.458Z,6.12
2019-05-07T15:34:49.431Z,6.67
2019-05-07T15:39:56.447Z,3.60
2019-05-07T15:45:03.648Z,5.65
2019-05-07T15:50:12.458Z,3.47
2019-05-07T15:55:19.572Z,6.17
2019-05-07T16:00:28.739Z,5.10
2019-05-07T16:05:35.665Z,4.62
2019-05-07T16:10:42.821Z,5.62
2019-05-07T16:15:50.264Z,3.52
2019-05-07T16:26:05.280Z,5.13
2019-05-07T16:36:18.420Z,7.15
2019-05-07T16:41:25.425Z,4.70
2019-05-07T16:46:32.441Z,3.60
2019-05-07T16:51:41.905Z,3.47
2019-05-07T17:12:32.409Z,10.90
2019-05-07T17:17:39.587Z,4.35
2019-05-07T17:22:46.642Z,7.22
2019-05-07T17:27:53.563Z,4.97
2019-05-07T17:33:01.945Z,5.72
2019-05-07T17:38:10.626Z,4.25
2019-05-07T17:43:18.597Z,5.80
2019-05-07T17:48:25.468Z,3.33
2019-05-07T17:53:37.685Z,6.25
2019-05-07T17:58:46.397Z,7.08
2019-05-07T18:03:54.469Z,4.50
2019-05-07T18:09:02.883Z,4.65
2019-05-07T18:14:11.588Z,2.50
2019-05-07T18:19:18.605Z,3.47
2019-05-07T18:25:21.622Z,10.72
2019-05-07T18:30:28.561Z,4.12
2019-05-07T18:35:35.589Z,6.15
2019-05-07T18:40:43.411Z,7.45
2019-05-07T18:45:51.732Z,9.38
2019-05-07T18:50:58.639Z,4.67
2019-05-07T19:01:13.710Z,4.78
2019-05-07T19:06:22.353Z,15.98
2019-05-07T19:11:29.449Z,16.27
2019-05-07T19:21:42.472Z,16.25
2019-05-07T19:26:49.463Z,30.12
2019-05-07T19:31:56.458Z,15.20
2019-05-07T19:37:03.573Z,11.38
2019-05-07T19:42:12.114Z,7.95
2019-05-07T19:52:25.443Z,10.40
2019-05-07T19:57:37.369Z,9.28
2019-05-07T20:02:47.267Z,11.27
2019-05-07T20:07:58.642Z,15.45
2019-05-07T20:13:03.572Z,17.75
2019-05-07T20:18:12.416Z,16.62
2019-05-07T20:23:19.576Z,15.03
2019-05-07T20:28:26.484Z,13.32
2019-05-07T20:33:33.458Z,26.45
2019-05-07T20:38:42.546Z,9.93
2019-05-07T20:43:52.338Z,9.73
2019-05-07T20:49:02.513Z,10.68
2019-05-07T20:54:14.650Z,15.38
2019-05-07T20:59:22.017Z,12.95
2019-05-07T21:04:29.421Z,9.35
2019-05-07T21:12:53.599Z,9.98
2019-05-07T21:18:01.540Z,9.48
2019-05-07T21:23:12.208Z,11.28
2019-05-07T21:28:19.450Z,8.35
2019-05-07T21:33:26.453Z,16.07
2019-05-07T21:38:33.478Z,8.73
2019-05-07T21:43:43.073Z,11.28
2019-05-07T21:48:51.782Z,11.35
2019-05-07T21:54:23.754Z,10.20
2019-05-07T21:59:35.463Z,11.53
2019-05-07T22:08:15.290Z,17.05
2019-05-07T22:13:22.440Z,14.28
2019-05-07T22:18:32.013Z,10.25
2019-05-07T22:23:38.431Z,10.72
2019-05-07T22:28:45.491Z,9.68
2019-05-07T22:34:04.267Z,11.53
2019-05-07T22:39:12.622Z,11.68
2019-05-07T22:44:25.440Z,5.75
2019-05-07T22:49:30.445Z,11.53
2019-05-07T22:54:37.475Z,5.75
2019-05-07T22:59:44.509Z,7.25
2019-05-07T23:04:52.117Z,23.18
2019-05-07T23:09:59.451Z,32.67
2019-05-07T23:15:07.969Z,20.00
2019-05-07T23:20:15.243Z,8.53
2019-05-07T23:25:24.487Z,7.90
2019-05-07T23:30:33.076Z,9.40
2019-05-07T23:35:42.126Z,5.50
2019-05-07T23:41:07.738Z,11.48
2019-05-07T23:46:15.660Z,11.20
2019-05-07T23:51:22.435Z,9.00
2019-05-07T23:56:29.592Z,8.88
